Time;durP1;ratioP1;P1;durP2;ratioP2;P2;SDS_P1;SDS_P2;PMS_P1;PMS_P2;Temp;Humidity;BMP_temperature;BMP_pressure;BME280_temperature;BME280_humidity;BME280_pressure;Samples;Min_cycle;Max_cycle;Signal;HPM_P1;HPM_P2
2023/06/09 00:00:17;;;;;;;;;12.00;10.00;;;;;;;;117937;1180;24739;-62
2023/06/09 00:03:07;;;;;;;;;12.50;11.50;;;;;;;;117914;1177;24762;-62
2023/06/09 00:05:36;;;;;;;;;11.25;10.75;;;;;;;;117797;1177;25106;-62
2023/06/09 00:08:04;;;;;;;;;12.33;12.33;;;;;;;;117788;1180;24722;-62
2023/06/09 00:10:33;;;;;;;;;10.00;9.33;;;;;;;;117832;1178;25207;-62
2023/06/09 00:13:01;;;;;;;;;12.00;10.50;;;;;;;;117831;1177;25358;-62
2023/06/09 00:15:30;;;;;;;;;13.00;13.00;;;;;;;;117816;1178;25425;-62
2023/06/09 00:18:02;;;;;;;;;10.67;7.67;;;;;;;;117829;1190;25425;-62
2023/06/09 00:20:33;;;;;;;;;12.50;11.50;;;;;;;;117832;1177;24917;-62
2023/06/09 00:23:02;;;;;;;;;9.50;8.50;;;;;;;;117892;1191;24850;-62
2023/06/09 00:25:32;;;;;;;;;11.33;9.67;;;;;;;;117945;1188;25440;-62
2023/06/09 00:28:01;;;;;;;;;8.00;8.00;;;;;;;;117925;1190;25550;-62
2023/06/09 00:30:30;;;;;;;;;10.67;10.00;;;;;;;;117937;1177;25306;-62
2023/06/09 00:33:07;;;;;;;;;12.00;10.00;;;;;;;;117953;1177;25293;-62
2023/06/09 00:35:36;;;;;;;;;11.67;11.00;;;;;;;;117931;1191;25384;-62
2023/06/09 00:38:05;;;;;;;;;10.67;9.00;;;;;;;;117854;1177;25021;-64
2023/06/09 00:40:33;;;;;;;;;10.67;10.67;;;;;;;;117832;1179;25267;-62
2023/06/09 00:43:02;;;;;;;;;10.75;9.75;;;;;;;;117872;1191;25436;-62
2023/06/09 00:45:31;;;;;;;;;8.33;8.33;;;;;;;;117850;1190;25253;-62
2023/06/09 00:48:00;;;;;;;;;12.33;10.33;;;;;;;;117818;1177;25405;-62
2023/06/09 00:50:29;;;;;;;;;10.33;10.33;;;;;;;;117821;1188;25458;-62
2023/06/09 00:52:58;;;;;;;;;10.00;8.00;;;;;;;;117816;1180;24987;-62
2023/06/09 00:55:27;;;;;;;;;13.50;9.50;;;;;;;;117838;1190;25040;-62
2023/06/09 00:57:56;;;;;;;;;11.50;9.50;;;;;;;;117840;1181;25423;-62
2023/06/09 01:00:28;;;;;;;;;16.33;12.00;;;;;;;;117835;1190;25318;-62
2023/06/09 01:03:01;;;;;;;;;8.33;7.67;;;;;;;;117904;1180;25026;-61
2023/06/09 01:05:36;;;;;;;;;12.00;10.67;;;;;;;;117832;1190;25495;-61
2023/06/09 01:08:56;;;;;;;;;15.33;13.00;;;;;;;;117814;1191;25032;-61
2023/06/09 01:11:43;;;;;;;;;9.50;8.00;;;;;;;;117624;1191;25233;-61
2023/06/09 01:14:17;;;;;;;;;13.00;10.50;;;;;;;;117897;1177;25785;-61
2023/06/09 01:17:13;;;;;;;;;12.67;10.00;;;;;;;;117873;1177;25001;-62
2023/06/09 01:19:56;;;;;;;;;11.33;8.00;;;;;;;;119920;1190;24809;-62
2023/06/09 01:22:47;;;;;;;;;11.00;11.00;;;;;;;;119869;1183;24850;-60
2023/06/09 01:25:37;;;;;;;;;10.50;8.50;;;;;;;;117895;1190;24879;-62
2023/06/09 01:28:18;;;;;;;;;11.33;11.00;;;;;;;;119269;1190;25673;-62
2023/06/09 01:30:49;;;;;;;;;12.50;12.50;;;;;;;;117876;1190;25488;-62
2023/06/09 01:33:22;;;;;;;;;14.00;12.50;;;;;;;;117944;1188;24722;-63
2023/06/09 01:35:52;;;;;;;;;11.00;8.75;;;;;;;;117846;1178;25657;-63
2023/06/09 01:38:23;;;;;;;;;9.00;8.33;;;;;;;;117809;1177;25668;-62
2023/06/09 01:40:52;;;;;;;;;11.00;8.00;;;;;;;;117769;1178;25159;-62
2023/06/09 01:43:21;;;;;;;;;12.00;11.50;;;;;;;;117831;1177;25500;-62
2023/06/09 01:45:49;;;;;;;;;12.00;10.00;;;;;;;;117829;1177;24811;-62
2023/06/09 01:48:57;;;;;;;;;13.75;10.00;;;;;;;;117814;1177;24961;-62
2023/06/09 01:51:50;;;;;;;;;10.67;9.00;;;;;;;;117825;1177;25525;-61
2023/06/09 01:54:31;;;;;;;;;7.33;6.33;;;;;;;;117853;1181;25081;-59
2023/06/09 01:57:16;;;;;;;;;10.50;10.50;;;;;;;;117926;1178;25230;-61
2023/06/09 01:59:51;;;;;;;;;12.00;11.00;;;;;;;;117965;1177;24882;-60
2023/06/09 02:02:21;;;;;;;;;7.00;7.00;;;;;;;;117990;1177;24721;-60
2023/06/09 02:04:51;;;;;;;;;11.33;9.67;;;;;;;;117909;1181;24835;-60
2023/06/09 02:07:21;;;;;;;;;11.67;10.67;;;;;;;;117883;1180;25605;-60
2023/06/09 02:09:50;;;;;;;;;11.00;9.50;;;;;;;;117723;1181;25026;-61
2023/06/09 02:12:19;;;;;;;;;10.67;10.67;;;;;;;;117893;1190;24908;-61
2023/06/09 02:14:47;;;;;;;;;11.00;10.50;;;;;;;;117913;1177;25279;-62
2023/06/09 02:17:17;;;;;;;;;14.00;11.00;;;;;;;;117888;1183;25558;-62
2023/06/09 02:19:46;;;;;;;;;10.33;9.00;;;;;;;;117820;1179;25228;-62
2023/06/09 02:22:15;;;;;;;;;7.00;7.00;;;;;;;;117932;1183;25451;-60
2023/06/09 02:24:44;;;;;;;;;10.67;10.00;;;;;;;;117961;1182;25426;-61
2023/06/09 02:27:12;;;;;;;;;9.00;9.00;;;;;;;;117879;1177;24833;-61
2023/06/09 02:29:41;;;;;;;;;8.33;8.33;;;;;;;;117888;1177;24806;-61
2023/06/09 02:32:10;;;;;;;;;9.33;9.33;;;;;;;;117907;1190;25370;-60
2023/06/09 02:34:38;;;;;;;;;10.00;10.00;;;;;;;;117917;1186;24801;-61
2023/06/09 02:37:07;;;;;;;;;9.25;7.75;;;;;;;;117832;1180;25620;-62
2023/06/09 02:39:36;;;;;;;;;12.33;11.33;;;;;;;;117885;1177;24732;-63
2023/06/09 02:42:05;;;;;;;;;10.00;8.00;;;;;;;;118028;1177;24888;-62
2023/06/09 02:44:37;;;;;;;;;11.67;9.00;;;;;;;;118056;1177;25378;-62
2023/06/09 02:47:06;;;;;;;;;7.00;6.00;;;;;;;;118066;1185;25293;-63
2023/06/09 02:49:34;;;;;;;;;12.00;10.00;;;;;;;;118015;1181;25681;-63
2023/06/09 02:52:03;;;;;;;;;9.33;8.67;;;;;;;;118052;1177;24925;-61
2023/06/09 02:54:31;;;;;;;;;10.00;10.00;;;;;;;;118066;1177;24869;-61
2023/06/09 02:57:00;;;;;;;;;9.25;9.00;;;;;;;;118021;1189;25080;-62
2023/06/09 02:59:29;;;;;;;;;13.67;8.67;;;;;;;;118082;1189;25483;-62
2023/06/09 03:01:57;;;;;;;;;14.00;9.00;;;;;;;;118078;1189;25559;-62
2023/06/09 03:04:26;;;;;;;;;14.67;13.00;;;;;;;;117986;1178;25158;-62
2023/06/09 03:06:55;;;;;;;;;11.33;9.33;;;;;;;;118058;1177;25165;-62
2023/06/09 03:09:25;;;;;;;;;13.25;13.00;;;;;;;;118021;1178;25206;-62
2023/06/09 03:11:53;;;;;;;;;10.75;9.50;;;;;;;;117936;1177;24974;-62
2023/06/09 03:14:23;;;;;;;;;9.00;9.00;;;;;;;;118072;1186;25027;-62
2023/06/09 03:16:52;;;;;;;;;10.50;10.25;;;;;;;;118092;1186;24879;-61
2023/06/09 03:19:21;;;;;;;;;8.75;8.75;;;;;;;;118057;1180;25062;-62
2023/06/09 03:21:52;;;;;;;;;12.50;10.00;;;;;;;;118054;1177;25509;-67
2023/06/09 03:24:20;;;;;;;;;15.00;10.75;;;;;;;;118006;1177;24870;-63
2023/06/09 03:26:49;;;;;;;;;7.33;7.33;;;;;;;;118039;1177;24836;-61
2023/06/09 03:29:22;;;;;;;;;10.00;10.00;;;;;;;;118055;1179;25119;-61
2023/06/09 03:31:50;;;;;;;;;11.25;10.00;;;;;;;;118097;1176;24938;-61
2023/06/09 03:34:20;;;;;;;;;11.50;10.75;;;;;;;;117917;1183;25123;-61
2023/06/09 03:36:48;;;;;;;;;8.00;7.00;;;;;;;;117950;1178;25314;-61
2023/06/09 03:39:17;;;;;;;;;9.33;8.33;;;;;;;;117892;1190;25641;-61
2023/06/09 03:41:46;;;;;;;;;11.00;10.00;;;;;;;;117903;1177;25384;-61
2023/06/09 03:44:14;;;;;;;;;13.00;11.00;;;;;;;;118044;1176;25637;-61
2023/06/09 03:46:43;;;;;;;;;11.50;10.25;;;;;;;;118036;1177;24860;-61
2023/06/09 03:49:11;;;;;;;;;10.25;10.25;;;;;;;;118067;1186;25738;-61
2023/06/09 03:51:40;;;;;;;;;6.75;6.75;;;;;;;;118067;1177;25119;-62
2023/06/09 03:54:09;;;;;;;;;12.50;10.75;;;;;;;;118037;1177;24951;-61
2023/06/09 03:56:37;;;;;;;;;12.50;9.25;;;;;;;;118007;1176;25188;-61
2023/06/09 03:59:06;;;;;;;;;11.33;10.67;;;;;;;;118026;1186;24975;-61
2023/06/09 04:01:35;;;;;;;;;9.67;8.00;;;;;;;;118069;1180;25261;-61
2023/06/09 04:04:04;;;;;;;;;12.00;11.00;;;;;;;;118015;1177;25680;-61
2023/06/09 04:06:35;;;;;;;;;10.67;10.67;;;;;;;;118024;1177;25654;-61
2023/06/09 04:09:03;;;;;;;;;11.00;9.00;;;;;;;;118008;1176;25266;-61
2023/06/09 04:11:32;;;;;;;;;10.50;8.00;;;;;;;;118063;1177;24911;-61
2023/06/09 04:14:01;;;;;;;;;11.75;9.00;;;;;;;;118073;1176;24771;-61
2023/06/09 04:16:30;;;;;;;;;11.00;9.67;;;;;;;;118016;1177;24868;-60
2023/06/09 04:18:58;;;;;;;;;11.00;10.25;;;;;;;;118015;1178;25249;-61
2023/06/09 04:21:27;;;;;;;;;7.50;6.75;;;;;;;;118045;1180;25553;-61
2023/06/09 04:23:56;;;;;;;;;10.00;8.67;;;;;;;;117953;1178;24922;-61
2023/06/09 04:26:25;;;;;;;;;10.00;9.00;;;;;;;;117987;1177;25184;-60
2023/06/09 04:28:54;;;;;;;;;11.75;10.75;;;;;;;;117952;1177;25016;-60
2023/06/09 04:31:33;;;;;;;;;11.00;11.00;;;;;;;;117994;1177;25662;-61
2023/06/09 04:34:12;;;;;;;;;8.50;7.50;;;;;;;;118012;1177;25667;-61
2023/06/09 04:36:44;;;;;;;;;11.00;9.00;;;;;;;;118061;1182;24799;-61
2023/06/09 04:39:13;;;;;;;;;10.67;10.67;;;;;;;;118028;1184;25670;-61
2023/06/09 04:41:42;;;;;;;;;7.33;6.33;;;;;;;;118034;1177;25437;-61
2023/06/09 04:44:10;;;;;;;;;9.00;9.00;;;;;;;;118003;1184;24886;-61
2023/06/09 04:46:41;;;;;;;;;9.50;9.50;;;;;;;;117998;1189;25509;-61
2023/06/09 04:49:09;;;;;;;;;10.00;7.33;;;;;;;;117998;1177;25409;-61
2023/06/09 04:51:46;;;;;;;;;9.67;9.00;;;;;;;;117900;1184;25096;-61
2023/06/09 04:54:28;;;;;;;;;7.67;7.67;;;;;;;;117909;1178;24904;-61
2023/06/09 04:57:02;;;;;;;;;10.00;8.00;;;;;;;;117900;1183;24696;-60
2023/06/09 04:59:31;;;;;;;;;11.33;10.33;;;;;;;;117918;1188;25132;-60
2023/06/09 05:02:00;;;;;;;;;6.50;6.00;;;;;;;;117935;1191;25659;-61
2023/06/09 05:04:30;;;;;;;;;7.00;7.00;;;;;;;;117902;1191;25604;-61
2023/06/09 05:06:58;;;;;;;;;9.50;8.50;;;;;;;;117818;1191;25229;-61
2023/06/09 05:09:27;;;;;;;;;12.00;9.25;;;;;;;;117865;1182;25001;-62
2023/06/09 05:11:56;;;;;;;;;8.00;7.00;;;;;;;;117896;1177;25669;-62
2023/06/09 05:14:24;;;;;;;;;12.00;11.25;;;;;;;;117873;1177;24738;-62
2023/06/09 05:16:53;;;;;;;;;11.00;8.00;;;;;;;;117877;1178;24698;-61
2023/06/09 05:19:22;;;;;;;;;6.00;6.00;;;;;;;;117942;1182;24677;-59
2023/06/09 05:21:51;;;;;;;;;8.00;7.33;;;;;;;;117917;1177;25244;-60
2023/06/09 05:24:20;;;;;;;;;7.00;7.00;;;;;;;;117877;1190;25569;-61
2023/06/09 05:26:48;;;;;;;;;11.33;8.67;;;;;;;;118004;1177;25436;-61
2023/06/09 05:29:17;;;;;;;;;7.25;7.25;;;;;;;;117936;1180;25230;-60
2023/06/09 05:31:46;;;;;;;;;10.33;10.00;;;;;;;;117946;1177;25373;-61
2023/06/09 05:34:14;;;;;;;;;7.00;7.00;;;;;;;;117950;1177;25371;-60
2023/06/09 05:36:43;;;;;;;;;9.00;8.00;;;;;;;;117940;1177;24901;-60
2023/06/09 05:39:12;;;;;;;;;10.00;8.67;;;;;;;;117951;1190;25431;-61
2023/06/09 05:41:40;;;;;;;;;8.25;7.75;;;;;;;;117928;1177;25353;-61
2023/06/09 05:44:09;;;;;;;;;8.00;8.00;;;;;;;;117948;1177;25401;-62
2023/06/09 05:46:40;;;;;;;;;10.75;9.50;;;;;;;;117933;1177;25618;-61
2023/06/09 05:49:09;;;;;;;;;8.00;8.00;;;;;;;;117922;1178;25595;-62
2023/06/09 05:51:37;;;;;;;;;9.50;8.00;;;;;;;;118004;1184;24977;-61
2023/06/09 05:54:06;;;;;;;;;10.33;10.33;;;;;;;;118036;1177;25149;-61
2023/06/09 05:56:37;;;;;;;;;11.67;9.00;;;;;;;;117920;1180;24993;-61
2023/06/09 05:59:09;;;;;;;;;13.00;10.25;;;;;;;;117904;1177;25434;-61
2023/06/09 06:01:39;;;;;;;;;9.33;7.67;;;;;;;;117973;1189;25050;-61
2023/06/09 06:04:08;;;;;;;;;10.33;10.33;;;;;;;;118077;1177;24758;-61
2023/06/09 06:06:37;;;;;;;;;8.00;7.50;;;;;;;;118144;1177;25215;-61
2023/06/09 06:09:07;;;;;;;;;9.00;9.00;;;;;;;;118079;1177;25116;-61
2023/06/09 06:11:37;;;;;;;;;9.00;8.00;;;;;;;;118032;1180;25167;-60
2023/06/09 06:14:06;;;;;;;;;8.00;7.00;;;;;;;;117878;1189;25273;-62
2023/06/09 06:16:34;;;;;;;;;10.67;10.00;;;;;;;;117929;1183;25158;-63
2023/06/09 06:19:03;;;;;;;;;9.75;8.00;;;;;;;;117936;1184;25487;-62
2023/06/09 06:21:31;;;;;;;;;14.25;10.50;;;;;;;;117923;1191;24989;-62
2023/06/09 06:24:00;;;;;;;;;9.67;6.67;;;;;;;;117933;1181;24934;-62
2023/06/09 06:26:29;;;;;;;;;8.25;8.25;;;;;;;;117926;1183;25120;-62
2023/06/09 06:28:58;;;;;;;;;9.67;9.67;;;;;;;;117803;1183;24946;-62
2023/06/09 06:31:28;;;;;;;;;8.50;6.25;;;;;;;;117848;1183;25642;-62
2023/06/09 06:33:58;;;;;;;;;8.00;6.75;;;;;;;;117961;1178;25515;-62
2023/06/09 06:36:26;;;;;;;;;11.00;9.67;;;;;;;;118048;1185;25228;-62
2023/06/09 06:38:55;;;;;;;;;10.00;9.50;;;;;;;;117937;1177;25630;-62
2023/06/09 06:41:23;;;;;;;;;10.67;8.00;;;;;;;;118008;1177;25663;-61
2023/06/09 06:43:53;;;;;;;;;9.25;9.25;;;;;;;;118025;1189;24717;-62
2023/06/09 06:46:21;;;;;;;;;8.25;8.00;;;;;;;;118012;1179;25627;-60
2023/06/09 06:48:50;;;;;;;;;8.67;7.67;;;;;;;;118057;1177;25685;-60
2023/06/09 06:51:19;;;;;;;;;12.00;10.00;;;;;;;;117975;1181;25030;-60
2023/06/09 06:53:47;;;;;;;;;11.25;8.50;;;;;;;;117998;1186;25417;-62
2023/06/09 06:56:16;;;;;;;;;15.00;11.00;;;;;;;;118011;1183;25116;-65
2023/06/09 06:58:45;;;;;;;;;7.33;7.33;;;;;;;;118010;1178;25238;-62
2023/06/09 07:01:14;;;;;;;;;12.33;9.67;;;;;;;;117854;1177;25145;-63
2023/06/09 07:03:43;;;;;;;;;8.75;8.50;;;;;;;;117947;1189;25283;-69
2023/06/09 07:06:11;;;;;;;;;9.67;9.00;;;;;;;;118039;1184;25706;-64
2023/06/09 07:08:40;;;;;;;;;14.00;12.00;;;;;;;;118001;1176;25596;-60
2023/06/09 07:11:09;;;;;;;;;8.25;8.25;;;;;;;;118089;1183;24699;-60
2023/06/09 07:13:38;;;;;;;;;7.33;7.33;;;;;;;;118447;1176;25635;-60
2023/06/09 07:16:06;;;;;;;;;8.00;7.33;;;;;;;;118022;1177;25147;-61
2023/06/09 07:18:36;;;;;;;;;6.50;6.50;;;;;;;;117978;1177;24928;-62
2023/06/09 07:21:05;;;;;;;;;9.00;7.00;;;;;;;;117904;1177;25243;-61
2023/06/09 07:23:33;;;;;;;;;9.75;7.25;;;;;;;;117916;1177;24793;-61
2023/06/09 07:26:03;;;;;;;;;8.00;7.50;;;;;;;;118083;1178;24672;-61
2023/06/09 07:28:32;;;;;;;;;13.00;11.33;;;;;;;;117957;1190;25261;-61
2023/06/09 07:31:00;;;;;;;;;7.75;7.75;;;;;;;;117967;1177;25717;-61
2023/06/09 07:33:32;;;;;;;;;12.25;8.75;;;;;;;;118095;1178;25670;-61
2023/06/09 07:36:01;;;;;;;;;8.75;6.00;;;;;;;;118022;1183;25598;-60
2023/06/09 07:38:29;;;;;;;;;9.50;8.00;;;;;;;;118045;1189;24914;-60
2023/06/09 07:40:58;;;;;;;;;10.00;8.33;;;;;;;;118044;1177;25506;-61
2023/06/09 07:43:27;;;;;;;;;9.67;8.67;;;;;;;;118013;1177;24978;-61
2023/06/09 07:45:56;;;;;;;;;11.00;9.67;;;;;;;;117957;1183;25596;-61
2023/06/09 07:48:25;;;;;;;;;7.75;6.75;;;;;;;;117917;1178;25223;-61
2023/06/09 07:50:54;;;;;;;;;9.50;8.00;;;;;;;;117963;1191;25006;-61
2023/06/09 07:53:29;;;;;;;;;10.33;8.67;;;;;;;;117935;1177;25427;-56
2023/06/09 07:55:58;;;;;;;;;9.00;7.00;;;;;;;;118032;1178;24693;-57
2023/06/09 07:58:27;;;;;;;;;8.00;7.33;;;;;;;;118191;1176;25683;-55
2023/06/09 08:00:55;;;;;;;;;9.33;7.67;;;;;;;;118044;1178;25497;-60
2023/06/09 08:03:24;;;;;;;;;8.00;8.00;;;;;;;;117895;1178;25954;-60
2023/06/09 08:05:53;;;;;;;;;10.00;8.00;;;;;;;;117912;1191;24908;-60
2023/06/09 08:08:22;;;;;;;;;9.00;8.00;;;;;;;;117902;1179;25402;-59
2023/06/09 08:10:51;;;;;;;;;10.33;10.00;;;;;;;;117939;1187;25573;-63
2023/06/09 08:13:19;;;;;;;;;7.00;7.00;;;;;;;;117897;1177;24756;-57
2023/06/09 08:15:48;;;;;;;;;11.00;8.75;;;;;;;;117882;1177;24723;-58
2023/06/09 08:18:16;;;;;;;;;7.00;7.00;;;;;;;;117807;1179;25206;-58
2023/06/09 08:20:45;;;;;;;;;8.50;7.00;;;;;;;;117877;1191;25250;-59
2023/06/09 08:23:15;;;;;;;;;6.50;6.50;;;;;;;;117849;1179;25703;-59
2023/06/09 08:25:44;;;;;;;;;13.67;10.00;;;;;;;;117936;1186;25188;-59
2023/06/09 08:28:13;;;;;;;;;10.33;8.00;;;;;;;;117918;1187;25364;-68
2023/06/09 08:30:42;;;;;;;;;8.00;7.50;;;;;;;;117932;1177;24939;-67
2023/06/09 08:33:11;;;;;;;;;7.75;7.00;;;;;;;;117922;1177;25318;-59
2023/06/09 08:35:40;;;;;;;;;9.50;8.50;;;;;;;;117883;1177;25252;-59
2023/06/09 08:38:09;;;;;;;;;5.33;4.00;;;;;;;;117925;1177;25072;-59
2023/06/09 08:40:37;;;;;;;;;5.33;5.33;;;;;;;;117885;1187;24887;-58
2023/06/09 08:43:06;;;;;;;;;11.50;9.00;;;;;;;;117937;1188;25242;-57
2023/06/09 08:45:35;;;;;;;;;8.00;6.33;;;;;;;;117962;1180;25537;-57
2023/06/09 08:48:05;;;;;;;;;5.50;5.50;;;;;;;;117825;1181;25508;-58
2023/06/09 08:50:41;;;;;;;;;7.25;7.25;;;;;;;;117843;1177;25458;-56
2023/06/09 08:53:10;;;;;;;;;9.50;7.50;;;;;;;;117873;1177;24983;-56
2023/06/09 08:55:39;;;;;;;;;5.75;5.75;;;;;;;;117898;1181;24781;-57
2023/06/09 08:58:08;;;;;;;;;9.33;7.67;;;;;;;;117902;1191;24923;-58
2023/06/09 09:00:38;;;;;;;;;10.00;7.00;;;;;;;;117893;1186;25982;-57
2023/06/09 09:03:06;;;;;;;;;9.00;8.00;;;;;;;;117900;1184;24808;-72
2023/06/09 09:05:35;;;;;;;;;7.00;7.00;;;;;;;;117831;1180;25588;-58
2023/06/09 09:08:04;;;;;;;;;10.67;8.33;;;;;;;;117901;1178;24964;-61
2023/06/09 09:10:33;;;;;;;;;9.33;8.00;;;;;;;;117866;1190;25517;-58
2023/06/09 09:13:05;;;;;;;;;10.00;8.00;;;;;;;;117889;1178;25583;-58
2023/06/09 09:15:34;;;;;;;;;9.00;9.00;;;;;;;;117987;1184;25740;-60
2023/06/09 09:18:09;;;;;;;;;9.00;9.00;;;;;;;;118172;1176;25536;-58
2023/06/09 09:20:38;;;;;;;;;10.00;10.00;;;;;;;;117807;1177;25044;-58
2023/06/09 09:23:10;;;;;;;;;11.50;10.25;;;;;;;;117870;1180;25115;-58
2023/06/09 09:25:39;;;;;;;;;9.00;9.00;;;;;;;;117920;1177;25214;-57
2023/06/09 09:28:12;;;;;;;;;13.00;11.00;;;;;;;;117973;1178;25171;-60
2023/06/09 09:30:54;;;;;;;;;8.00;7.33;;;;;;;;117923;1177;25601;-59
2023/06/09 09:33:24;;;;;;;;;11.00;9.00;;;;;;;;117755;1180;25632;-62
2023/06/09 09:35:55;;;;;;;;;9.00;8.00;;;;;;;;117754;1190;25252;-61
2023/06/09 09:38:24;;;;;;;;;10.00;8.67;;;;;;;;117821;1190;24824;-60
2023/06/09 09:40:55;;;;;;;;;10.67;10.00;;;;;;;;117797;1177;25614;-62
2023/06/09 09:43:28;;;;;;;;;11.00;10.00;;;;;;;;117875;1176;25321;-62
2023/06/09 09:46:05;;;;;;;;;13.00;11.00;;;;;;;;117849;1177;24905;-61
2023/06/09 09:48:37;;;;;;;;;15.25;10.75;;;;;;;;117877;1177;25616;-61
2023/06/09 09:51:08;;;;;;;;;13.00;10.00;;;;;;;;117843;1187;25410;-61
2023/06/09 09:53:37;;;;;;;;;9.00;9.00;;;;;;;;117838;1177;25238;-61
2023/06/09 09:56:06;;;;;;;;;11.00;11.00;;;;;;;;117889;1190;25412;-61
2023/06/09 09:58:35;;;;;;;;;10.00;8.67;;;;;;;;117930;1191;24836;-60
2023/06/09 10:01:05;;;;;;;;;11.67;11.67;;;;;;;;117938;1177;25123;-61
2023/06/09 10:03:36;;;;;;;;;8.33;8.00;;;;;;;;117956;1179;25345;-61
2023/06/09 10:06:09;;;;;;;;;8.00;8.00;;;;;;;;117886;1179;24861;-61
2023/06/09 10:08:40;;;;;;;;;11.33;9.33;;;;;;;;117960;1177;24718;-61
2023/06/09 10:11:08;;;;;;;;;10.00;6.67;;;;;;;;117920;1177;25609;-60
2023/06/09 10:13:37;;;;;;;;;7.33;7.00;;;;;;;;117844;1179;25124;-60
2023/06/09 10:16:06;;;;;;;;;9.50;9.50;;;;;;;;117831;1177;25592;-60
2023/06/09 10:18:36;;;;;;;;;13.00;7.50;;;;;;;;117879;1179;25385;-60
2023/06/09 10:21:07;;;;;;;;;16.33;11.00;;;;;;;;117891;1184;25639;-60
2023/06/09 10:23:36;;;;;;;;;7.67;7.33;;;;;;;;117827;1191;24694;-60
2023/06/09 10:26:04;;;;;;;;;10.50;9.00;;;;;;;;117902;1187;25507;-60
2023/06/09 10:28:33;;;;;;;;;8.75;8.50;;;;;;;;117950;1189;25165;-61
2023/06/09 10:31:03;;;;;;;;;8.75;8.75;;;;;;;;118185;1189;25504;-61
2023/06/09 10:33:33;;;;;;;;;10.25;8.00;;;;;;;;118154;1186;25589;-60
2023/06/09 10:36:08;;;;;;;;;8.00;8.00;;;;;;;;118200;1176;25367;-61
2023/06/09 10:38:44;;;;;;;;;12.25;11.00;;;;;;;;118228;1178;25480;-60
2023/06/09 10:41:31;;;;;;;;;10.00;10.00;;;;;;;;118238;1184;24924;-65
2023/06/09 10:44:09;;;;;;;;;8.00;7.50;;;;;;;;118091;1180;25393;-67
2023/06/09 10:46:46;;;;;;;;;11.00;10.00;;;;;;;;118118;1178;25610;-61
2023/06/09 10:49:37;;;;;;;;;13.50;10.00;;;;;;;;117936;1177;25555;-60
2023/06/09 10:52:38;;;;;;;;;12.75;11.75;;;;;;;;118114;1189;25416;-58
2023/06/09 10:55:15;;;;;;;;;11.00;9.50;;;;;;;;118146;1176;25025;-60
2023/06/09 10:57:44;;;;;;;;;14.25;9.50;;;;;;;;118175;1176;25675;-61
2023/06/09 11:00:15;;;;;;;;;15.67;10.00;;;;;;;;117923;1189;25103;-61
2023/06/09 11:03:06;;;;;;;;;9.50;8.50;;;;;;;;117895;1177;24857;-60
2023/06/09 11:05:43;;;;;;;;;17.50;12.50;;;;;;;;118138;1177;25619;-60
2023/06/09 11:08:12;;;;;;;;;15.50;14.00;;;;;;;;117978;1184;25135;-60
2023/06/09 11:10:41;;;;;;;;;9.50;9.50;;;;;;;;117863;1177;24682;-61
2023/06/09 11:13:39;;;;;;;;;12.50;9.50;;;;;;;;117869;1177;25124;-60
2023/06/09 11:16:08;;;;;;;;;12.00;10.00;;;;;;;;117855;1177;25279;-60
2023/06/09 11:18:39;;;;;;;;;12.67;11.33;;;;;;;;117867;1181;25498;-61
2023/06/09 11:21:16;;;;;;;;;12.25;10.50;;;;;;;;117846;1177;25067;-60
2023/06/09 11:24:03;;;;;;;;;12.50;11.50;;;;;;;;117850;1179;24825;-62
2023/06/09 11:26:33;;;;;;;;;11.00;9.50;;;;;;;;117875;1177;24866;-60
2023/06/09 11:29:03;;;;;;;;;15.50;11.00;;;;;;;;117817;1190;25646;-60
2023/06/09 11:31:47;;;;;;;;;18.00;12.67;;;;;;;;117846;1177;25283;-60
2023/06/09 11:34:49;;;;;;;;;13.00;12.00;;;;;;;;117827;1178;25658;-59
2023/06/09 11:37:20;;;;;;;;;9.67;7.33;;;;;;;;117802;1180;24785;-61
2023/06/09 11:39:50;;;;;;;;;10.00;10.00;;;;;;;;117892;1180;24877;-60
2023/06/09 11:42:19;;;;;;;;;8.50;8.50;;;;;;;;117833;1179;25659;-60
2023/06/09 11:44:48;;;;;;;;;10.00;9.00;;;;;;;;117864;1177;24797;-60
2023/06/09 11:47:27;;;;;;;;;12.00;10.00;;;;;;;;117779;1180;25498;-60
2023/06/09 11:50:01;;;;;;;;;10.50;9.00;;;;;;;;117759;1178;25217;-61
2023/06/09 11:52:34;;;;;;;;;13.33;10.67;;;;;;;;117845;1177;25422;-60
2023/06/09 11:55:05;;;;;;;;;9.00;9.00;;;;;;;;117802;1179;25638;-60
2023/06/09 11:57:35;;;;;;;;;8.50;8.00;;;;;;;;117875;1178;25160;-60
2023/06/09 12:00:14;;;;;;;;;11.67;8.67;;;;;;;;117855;1186;25414;-60
2023/06/09 12:02:45;;;;;;;;;12.50;10.75;;;;;;;;117790;1178;28466;-61
2023/06/09 12:05:14;;;;;;;;;11.67;11.33;;;;;;;;117926;1187;25165;-60
2023/06/09 12:07:44;;;;;;;;;7.33;7.00;;;;;;;;118198;1176;24890;-59
2023/06/09 12:10:14;;;;;;;;;20.75;14.75;;;;;;;;118028;1184;25304;-61
2023/06/09 12:12:50;;;;;;;;;19.33;15.67;;;;;;;;117944;1179;24985;-62
2023/06/09 12:15:21;;;;;;;;;18.50;15.25;;;;;;;;117872;1182;25039;-57
2023/06/09 12:17:52;;;;;;;;;21.50;18.50;;;;;;;;117823;1190;25152;-60
2023/06/09 12:20:30;;;;;;;;;20.33;20.33;;;;;;;;117887;1177;25291;-61
2023/06/09 12:23:00;;;;;;;;;22.25;17.50;;;;;;;;117867;1177;25500;-61
2023/06/09 12:25:41;;;;;;;;;21.33;18.67;;;;;;;;117920;1186;24725;-60
2023/06/09 12:28:27;;;;;;;;;15.75;12.75;;;;;;;;117900;1178;25530;-61
2023/06/09 12:31:06;;;;;;;;;25.25;20.25;;;;;;;;118000;1189;25295;-61
2023/06/09 12:33:35;;;;;;;;;24.67;20.00;;;;;;;;117946;1178;24698;-58
2023/06/09 12:36:07;;;;;;;;;18.00;18.00;;;;;;;;117868;1191;24916;-60
2023/06/09 12:38:40;;;;;;;;;25.25;20.75;;;;;;;;117849;1177;25779;-60
2023/06/09 12:41:14;;;;;;;;;15.75;15.75;;;;;;;;117853;1177;25149;-59
2023/06/09 12:44:00;;;;;;;;;21.67;17.67;;;;;;;;117861;1177;25110;-59
2023/06/09 12:46:32;;;;;;;;;17.50;17.50;;;;;;;;117856;1177;25420;-59
2023/06/09 12:49:05;;;;;;;;;17.00;15.67;;;;;;;;117866;1190;25305;-60
2023/06/09 12:51:40;;;;;;;;;20.25;14.50;;;;;;;;117916;1187;25544;-59
2023/06/09 12:54:11;;;;;;;;;20.33;14.67;;;;;;;;117799;1177;24820;-58
2023/06/09 12:56:40;;;;;;;;;21.00;16.33;;;;;;;;117861;1183;25357;-60
2023/06/09 12:59:09;;;;;;;;;17.00;16.00;;;;;;;;117915;1177;25028;-62
2023/06/09 13:01:39;;;;;;;;;19.00;13.75;;;;;;;;117816;1190;24999;-61
2023/06/09 13:04:08;;;;;;;;;19.67;16.00;;;;;;;;117878;1190;25703;-62
2023/06/09 13:06:37;;;;;;;;;23.00;16.33;;;;;;;;117902;1181;25074;-61
2023/06/09 13:09:06;;;;;;;;;19.33;19.33;;;;;;;;117901;1177;24952;-61
2023/06/09 13:11:34;;;;;;;;;15.75;14.25;;;;;;;;117877;1188;25605;-62
2023/06/09 13:14:03;;;;;;;;;9.50;9.50;;;;;;;;117884;1177;25775;-62
2023/06/09 13:16:32;;;;;;;;;13.00;11.50;;;;;;;;117810;1190;24656;-61
2023/06/09 13:19:00;;;;;;;;;16.00;15.00;;;;;;;;117855;1190;26612;-60
2023/06/09 13:21:30;;;;;;;;;20.00;14.50;;;;;;;;117891;1190;25631;-61
2023/06/09 13:24:03;;;;;;;;;23.00;17.00;;;;;;;;117850;1191;25644;-58
2023/06/09 13:26:31;;;;;;;;;11.25;11.25;;;;;;;;117851;1190;25702;-58
2023/06/09 13:29:00;;;;;;;;;18.67;15.33;;;;;;;;117814;1182;25493;-58
2023/06/09 13:31:29;;;;;;;;;17.75;16.00;;;;;;;;117886;1177;25222;-58
2023/06/09 13:33:58;;;;;;;;;12.25;10.25;;;;;;;;117896;1179;25666;-57
2023/06/09 13:36:26;;;;;;;;;10.00;9.00;;;;;;;;117864;1190;25634;-58
2023/06/09 13:38:55;;;;;;;;;16.67;12.33;;;;;;;;117945;1177;24883;-59
2023/06/09 13:41:24;;;;;;;;;17.75;14.50;;;;;;;;117921;1186;24886;-59
2023/06/09 13:43:53;;;;;;;;;20.50;16.00;;;;;;;;117895;1190;25507;-59
2023/06/09 13:46:22;;;;;;;;;16.00;14.00;;;;;;;;117922;1178;25107;-58
2023/06/09 13:48:51;;;;;;;;;15.00;12.00;;;;;;;;117940;1177;25819;-59
2023/06/09 13:51:20;;;;;;;;;18.67;15.67;;;;;;;;118061;1177;25362;-59
2023/06/09 13:53:49;;;;;;;;;11.00;10.00;;;;;;;;117844;1186;25285;-60
2023/06/09 13:56:20;;;;;;;;;16.00;12.25;;;;;;;;118075;1177;24833;-60
2023/06/09 13:58:48;;;;;;;;;15.25;13.50;;;;;;;;118241;1186;25471;-61
2023/06/09 14:01:17;;;;;;;;;14.25;11.00;;;;;;;;118176;1178;24735;-59
2023/06/09 14:03:46;;;;;;;;;12.67;12.33;;;;;;;;118072;1177;24769;-60
2023/06/09 14:06:15;;;;;;;;;13.25;11.50;;;;;;;;117979;1178;24829;-57
2023/06/09 14:08:44;;;;;;;;;14.00;13.00;;;;;;;;118014;1177;25544;-58
2023/06/09 14:11:13;;;;;;;;;17.00;15.33;;;;;;;;118042;1176;25425;-57
2023/06/09 14:13:41;;;;;;;;;19.25;12.75;;;;;;;;118003;1179;25420;-66
2023/06/09 14:16:10;;;;;;;;;17.67;12.33;;;;;;;;118033;1183;24896;-58
2023/06/09 14:18:39;;;;;;;;;15.75;14.50;;;;;;;;118088;1186;25654;-60
2023/06/09 14:21:08;;;;;;;;;17.00;12.00;;;;;;;;118042;1190;25253;-61
2023/06/09 14:23:38;;;;;;;;;11.50;11.00;;;;;;;;118115;1177;25300;-68
2023/06/09 14:26:07;;;;;;;;;13.33;13.33;;;;;;;;118171;1176;25315;-65
2023/06/09 14:28:36;;;;;;;;;12.00;10.50;;;;;;;;118201;1178;24944;-58
2023/06/09 14:31:05;;;;;;;;;13.50;12.50;;;;;;;;118134;1177;25552;-57
2023/06/09 14:33:34;;;;;;;;;17.50;14.00;;;;;;;;118008;1190;25623;-58
2023/06/09 14:36:03;;;;;;;;;18.33;13.33;;;;;;;;117863;1177;25106;-59
2023/06/09 14:38:32;;;;;;;;;13.67;13.33;;;;;;;;117871;1190;25673;-61